createdAt,value
2022-08-19T00:00:46.570Z,1.04
2022-08-19T00:01:46.840Z,1.04
2022-08-19T00:02:49.992Z,1.04
2022-08-19T00:03:46.878Z,1.04
2022-08-19T00:04:47.018Z,1.04
2022-08-19T00:05:47.112Z,1.04
2022-08-19T00:06:47.182Z,1.04
2022-08-19T00:07:47.329Z,1.04
2022-08-19T00:08:47.436Z,1.04
2022-08-19T00:09:47.585Z,1.04
2022-08-19T00:10:47.688Z,1.04
2022-08-19T00:11:47.795Z,1.04
2022-08-19T00:12:47.958Z,1.04
2022-08-19T00:13:47.993Z,1.04
2022-08-19T00:14:48.149Z,1.04
2022-08-19T00:15:48.297Z,1.04
2022-08-19T00:16:48.401Z,1.04
2022-08-19T00:17:48.503Z,1.04
2022-08-19T00:18:48.605Z,1.04
2022-08-19T00:19:48.757Z,1.04
2022-08-19T00:20:48.911Z,1.04
2022-08-19T00:21:49.008Z,1.04
2022-08-19T00:22:49.161Z,1.04
2022-08-19T00:23:49.320Z,1.04
2022-08-19T00:24:49.674Z,1.04
2022-08-19T00:25:49.522Z,1.04
2022-08-19T00:26:49.656Z,1.04
2022-08-19T00:27:49.772Z,1.04
2022-08-19T00:28:49.925Z,1.04
2022-08-19T00:29:52.258Z,1.04
2022-08-19T00:30:50.177Z,1.04
2022-08-19T00:31:50.657Z,1.04
2022-08-19T00:32:50.431Z,1.04
2022-08-19T00:33:50.584Z,1.04
2022-08-19T00:34:50.738Z,1.04
2022-08-19T00:35:56.023Z,1.04
2022-08-19T00:36:51.041Z,1.04
2022-08-19T00:37:51.142Z,1.04
2022-08-19T00:38:51.242Z,1.04
2022-08-19T00:39:51.406Z,1.04
2022-08-19T00:40:51.495Z,1.04
2022-08-19T00:41:51.603Z,1.04
2022-08-19T00:42:51.861Z,1.04
2022-08-19T00:43:51.803Z,1.04
2022-08-19T00:44:51.956Z,1.04
2022-08-19T00:45:52.108Z,1.04
2022-08-19T00:46:55.530Z,1.04
2022-08-19T00:47:52.365Z,1.04
2022-08-19T00:48:52.462Z,1.04
2022-08-19T00:49:52.570Z,1.04
2022-08-19T00:50:52.720Z,1.04
2022-08-19T00:51:52.821Z,1.04
2022-08-19T00:52:53.087Z,1.04
2022-08-19T00:53:53.082Z,1.04
2022-08-19T00:54:53.428Z,1.04
2022-08-19T00:55:53.327Z,1.04
2022-08-19T00:56:54.178Z,1.04
2022-08-19T00:57:53.637Z,1.04
2022-08-19T00:58:53.738Z,1.04
2022-08-19T00:59:56.586Z,1.04
2022-08-19T01:00:54.037Z,1.04
2022-08-19T01:01:54.163Z,1.04
2022-08-19T01:02:54.405Z,1.04
2022-08-19T01:03:56.713Z,1.04
2022-08-19T01:04:54.540Z,1.04
2022-08-19T01:05:54.699Z,1.04
2022-08-19T01:06:54.802Z,1.04
2022-08-19T01:07:54.951Z,1.04
2022-08-19T01:08:55.055Z,1.04
2022-08-19T01:09:55.206Z,1.04
2022-08-19T01:10:55.358Z,1.04
2022-08-19T01:11:55.509Z,1.04
2022-08-19T01:12:55.670Z,1.04
2022-08-19T01:13:55.808Z,1.04
2022-08-19T01:14:55.965Z,1.04
2022-08-19T01:15:56.070Z,1.04
2022-08-19T01:16:56.218Z,1.04
2022-08-19T01:17:56.370Z,1.04
2022-08-19T01:18:56.522Z,1.04
2022-08-19T01:19:56.628Z,1.04
2022-08-19T01:20:56.731Z,1.04
2022-08-19T01:21:56.850Z,1.04
2022-08-19T01:22:56.980Z,1.04
2022-08-19T01:23:57.082Z,1.04
2022-08-19T01:24:57.236Z,1.04
2022-08-19T01:25:57.414Z,1.04
2022-08-19T01:26:57.494Z,1.04
2022-08-19T01:27:59.101Z,1.04
2022-08-19T01:28:59.716Z,1.04
2022-08-19T01:29:57.900Z,1.04
2022-08-19T01:30:57.997Z,1.04
2022-08-19T01:31:58.150Z,1.04
2022-08-19T01:32:58.299Z,1.04
2022-08-19T01:33:58.402Z,1.04
2022-08-19T01:34:58.508Z,1.04
2022-08-19T01:35:58.656Z,1.04
2022-08-19T01:36:58.761Z,1.04
2022-08-19T01:37:58.857Z,1.04
2022-08-19T01:38:58.963Z,1.04
2022-08-19T01:39:59.200Z,1.04
2022-08-19T01:40:59.215Z,1.04
2022-08-19T01:41:59.321Z,1.04
2022-08-19T01:42:59.476Z,1.04
2022-08-19T01:44:03.116Z,1.04
2022-08-19T01:44:59.673Z,1.04
2022-08-19T01:45:59.827Z,1.04
2022-08-19T01:46:59.929Z,1.04
2022-08-19T01:48:01.471Z,1.04
2022-08-19T01:49:00.131Z,1.04
2022-08-19T01:50:00.287Z,1.04
2022-08-19T01:51:00.451Z,1.04
2022-08-19T01:52:00.589Z,1.04
2022-08-19T01:53:02.487Z,1.04
2022-08-19T01:54:00.800Z,1.04
2022-08-19T01:55:00.941Z,1.04
2022-08-19T01:56:01.097Z,1.04
2022-08-19T01:57:01.197Z,1.04
2022-08-19T01:58:01.301Z,1.04
2022-08-19T01:59:01.459Z,1.04
2022-08-19T02:00:01.606Z,1.04
2022-08-19T02:01:01.766Z,1.04
2022-08-19T02:02:01.860Z,1.04
2022-08-19T02:03:02.201Z,1.04
2022-08-19T02:04:02.119Z,1.04
2022-08-19T02:05:02.211Z,1.04
2022-08-19T02:06:02.367Z,1.04
2022-08-19T02:07:02.469Z,1.04
2022-08-19T02:08:02.616Z,1.04
2022-08-19T02:09:03.874Z,1.04
2022-08-19T02:10:03.115Z,1.04
2022-08-19T02:11:02.977Z,1.04
2022-08-19T02:12:03.077Z,1.04
2022-08-19T02:13:03.181Z,1.04
2022-08-19T02:14:03.330Z,1.04
2022-08-19T02:15:03.484Z,1.04
2022-08-19T02:16:04.165Z,1.04
2022-08-19T02:17:03.735Z,1.04
2022-08-19T02:18:03.841Z,1.04
2022-08-19T02:19:03.942Z,1.04
2022-08-19T02:20:04.094Z,1.04
2022-08-19T02:21:04.254Z,1.04
2022-08-19T02:22:04.592Z,1.04
2022-08-19T02:23:04.451Z,1.04
2022-08-19T02:24:04.599Z,1.04
2022-08-19T02:25:04.703Z,1.04
2022-08-19T02:26:04.807Z,1.04
2022-08-19T02:27:04.929Z,1.04
2022-08-19T02:28:05.056Z,1.04
2022-08-19T02:29:05.165Z,1.04
2022-08-19T02:30:05.314Z,1.04
2022-08-19T02:31:05.415Z,1.04
2022-08-19T02:32:05.520Z,1.04
2022-08-19T02:33:05.666Z,1.04
2022-08-19T02:34:05.771Z,1.04
2022-08-19T02:35:11.973Z,1.04
2022-08-19T02:36:05.974Z,1.04
2022-08-19T02:37:06.127Z,1.04
2022-08-19T02:38:06.227Z,1.04
2022-08-19T02:39:06.327Z,1.04
2022-08-19T02:40:12.244Z,1.04
2022-08-19T02:41:06.583Z,1.04
2022-08-19T02:42:06.694Z,1.04
2022-08-19T02:43:06.790Z,1.04
2022-08-19T02:44:18.440Z,1.04
2022-08-19T02:45:07.050Z,1.04
2022-08-19T02:46:07.201Z,1.04
2022-08-19T02:47:07.306Z,1.04
2022-08-19T02:48:10.135Z,1.04
2022-08-19T02:49:07.502Z,1.04
2022-08-19T02:50:07.606Z,1.04
2022-08-19T02:51:07.702Z,1.04
2022-08-19T02:52:07.806Z,1.04
2022-08-19T02:53:07.911Z,1.04
2022-08-19T02:54:08.060Z,1.04
2022-08-19T02:55:08.210Z,1.04
2022-08-19T02:56:08.365Z,1.04
2022-08-19T02:57:08.464Z,1.04
2022-08-19T02:58:08.570Z,1.04
2022-08-19T02:59:08.719Z,1.04
2022-08-19T03:00:08.870Z,1.04
2022-08-19T03:01:09.112Z,1.04
2022-08-19T03:02:09.129Z,1.04
2022-08-19T03:03:09.234Z,1.04
2022-08-19T03:04:09.329Z,1.04
2022-08-19T03:05:09.434Z,1.04
2022-08-19T03:06:09.580Z,1.04
2022-08-19T03:07:10.986Z,1.04
2022-08-19T03:08:09.789Z,1.04
2022-08-19T03:09:09.942Z,1.04
2022-08-19T03:10:10.095Z,1.04
2022-08-19T03:11:10.246Z,1.04
2022-08-19T03:12:10.351Z,1.04
2022-08-19T03:13:10.452Z,1.04
2022-08-19T03:14:10.548Z,1.04
2022-08-19T03:15:10.660Z,1.04
2022-08-19T03:16:10.801Z,1.04
2022-08-19T03:17:10.955Z,1.04
2022-08-19T03:18:11.109Z,1.04
2022-08-19T03:19:11.206Z,1.04
2022-08-19T03:20:11.369Z,1.04
2022-08-19T03:21:12.342Z,1.04
2022-08-19T03:22:11.619Z,1.04
2022-08-19T03:23:11.752Z,1.04
2022-08-19T03:24:11.823Z,1.04
2022-08-19T03:25:11.918Z,1.04
2022-08-19T03:26:16.278Z,1.04
2022-08-19T03:27:12.126Z,1.04
2022-08-19T03:28:12.283Z,1.04
2022-08-19T03:29:13.178Z,1.04
2022-08-19T03:30:12.534Z,1.04
2022-08-19T03:31:42.227Z,1.04
2022-08-19T03:32:24.471Z,2
2022-08-19T03:33:15.864Z,2
2022-08-19T03:34:12.994Z,2
2022-08-19T03:35:13.091Z,2
2022-08-19T03:36:13.194Z,2
2022-08-19T03:37:13.368Z,2
2022-08-19T03:38:13.495Z,2
2022-08-19T03:39:13.657Z,3.04
2022-08-19T03:40:13.799Z,3.04
2022-08-19T03:41:13.906Z,4
2022-08-19T03:42:33.430Z,4
2022-08-19T03:43:14.157Z,5.04
2022-08-19T03:44:17.094Z,5.04
2022-08-19T03:45:14.389Z,6
2022-08-19T03:46:14.469Z,6
2022-08-19T03:47:14.613Z,7.04
2022-08-19T03:48:14.717Z,8
2022-08-19T03:49:14.897Z,10
2022-08-19T03:50:14.928Z,12
2022-08-19T03:51:15.027Z,14
2022-08-19T03:52:15.151Z,16
2022-08-19T03:53:15.276Z,18
2022-08-19T03:54:15.438Z,20
2022-08-19T03:55:15.528Z,21.04
2022-08-19T03:56:15.638Z,22
2022-08-19T03:57:15.733Z,24
2022-08-19T03:58:15.838Z,24
2022-08-19T03:59:15.937Z,24
2022-08-19T04:00:16.038Z,24
2022-08-19T04:01:16.204Z,24
2022-08-19T04:02:16.259Z,24
2022-08-19T04:03:16.394Z,25.04
2022-08-19T04:04:16.502Z,27.04
2022-08-19T04:05:16.606Z,30
2022-08-19T04:06:16.750Z,33.04
2022-08-19T04:07:16.939Z,36
2022-08-19T04:08:17.006Z,40
2022-08-19T04:09:17.158Z,42
2022-08-19T04:10:17.260Z,47.04
2022-08-19T04:11:17.411Z,48
2022-08-19T04:12:17.755Z,51.04
2022-08-19T04:13:17.619Z,56
2022-08-19T04:14:17.719Z,61.04
2022-08-19T04:15:17.875Z,67.04
2022-08-19T04:16:18.029Z,70
2022-08-19T04:17:18.170Z,68
2022-08-19T04:18:18.327Z,66
2022-08-19T04:19:18.493Z,69.04
2022-08-19T04:20:18.629Z,77.04
2022-08-19T04:21:18.734Z,93.04
2022-08-19T04:22:18.886Z,108
2022-08-19T04:23:19.043Z,116
2022-08-19T04:24:19.171Z,122
2022-08-19T04:25:19.237Z,137.04
2022-08-19T04:26:19.344Z,151.04
2022-08-19T04:27:19.444Z,164
2022-08-19T04:28:19.614Z,184
2022-08-19T04:29:19.750Z,196
2022-08-19T04:30:19.902Z,198.08
2022-08-19T04:31:20.067Z,204
2022-08-19T04:32:20.163Z,220
2022-08-19T04:33:20.255Z,236
2022-08-19T04:34:20.362Z,260
2022-08-19T04:35:23.228Z,289.12
2022-08-19T04:36:20.614Z,306.08
2022-08-19T04:37:20.765Z,320
2022-08-19T04:38:20.869Z,340.16
2022-08-19T04:39:20.969Z,338.24
2022-08-19T04:40:21.126Z,337.28
2022-08-19T04:41:21.223Z,318.08
2022-08-19T04:42:21.378Z,363.2
2022-08-19T04:43:21.478Z,392
2022-08-19T04:44:21.577Z,487.04
2022-08-19T04:45:22.940Z,578.24
2022-08-19T04:46:28.559Z,613.12
2022-08-19T04:47:47.315Z,661.12
2022-08-19T04:48:27.533Z,872.32
2022-08-19T04:49:22.138Z,930.56
2022-08-19T04:50:22.344Z,891.52
2022-08-19T04:51:22.390Z,852.48
2022-08-19T04:52:22.546Z,828.16
2022-08-19T04:53:22.701Z,944
2022-08-19T04:54:37.181Z,986.24
2022-08-19T04:55:22.971Z,1001.6
2022-08-19T04:56:23.057Z,984.32
2022-08-19T04:57:23.209Z,920.32
2022-08-19T04:58:23.358Z,854.4
2022-08-19T04:59:23.463Z,867.2
2022-08-19T05:00:23.612Z,922.24
2022-08-19T05:01:23.781Z,923.52
2022-08-19T05:02:23.917Z,968.32
2022-08-19T05:03:26.527Z,904.32
2022-08-19T05:04:24.126Z,876.16
2022-08-19T05:05:24.271Z,885.12
2022-08-19T05:06:24.382Z,859.52
2022-08-19T05:07:24.523Z,906.24
2022-08-19T05:08:30.624Z,846.08
2022-08-19T05:09:24.776Z,832
2022-08-19T05:10:24.928Z,885.12
2022-08-19T05:11:26.605Z,884.48
2022-08-19T05:12:29.082Z,933.12
2022-08-19T05:13:25.376Z,952.32
2022-08-19T05:14:25.485Z,917.12
2022-08-19T05:15:25.589Z,890.24
2022-08-19T05:16:25.740Z,841.6
2022-08-19T05:17:28.322Z,834.56
2022-08-19T05:18:25.945Z,855.04
2022-08-19T05:19:26.048Z,852.48
2022-08-19T05:20:26.163Z,850.56
2022-08-19T05:21:26.255Z,906.24
2022-08-19T05:22:26.357Z,1016.32
2022-08-19T05:23:26.457Z,993.28
2022-08-19T05:24:26.606Z,1018.24
2022-08-19T05:25:26.712Z,1028.48
2022-08-19T05:26:26.811Z,1118.08
2022-08-19T05:27:26.960Z,1213.44
2022-08-19T05:28:27.064Z,1187.2
2022-08-19T05:29:27.169Z,1275.52
2022-08-19T05:30:42.265Z,1422.08
2022-08-19T05:31:27.371Z,1400.32
2022-08-19T05:32:27.474Z,1587.2
2022-08-19T05:33:27.629Z,1427.2
2022-08-19T05:34:27.735Z,1303.04
2022-08-19T05:35:27.881Z,1395.2
2022-08-19T05:36:27.978Z,1596.16
2022-08-19T05:37:28.089Z,1640.96
2022-08-19T05:38:28.232Z,1612.8
2022-08-19T05:39:28.390Z,1820.16
2022-08-19T05:40:28.537Z,1876.48
2022-08-19T05:41:28.642Z,2119.68
2022-08-19T05:42:28.788Z,2118.4
2022-08-19T05:43:28.897Z,1715.2
2022-08-19T05:44:29.011Z,1638.4
2022-08-19T05:45:29.101Z,1696
2022-08-19T05:46:29.256Z,2009.6
2022-08-19T05:47:29.401Z,2024.96
2022-08-19T05:48:29.554Z,1809.92
2022-08-19T05:49:29.685Z,1815.04
2022-08-19T05:50:29.758Z,1926.4
2022-08-19T05:51:29.909Z,1768.96
2022-08-19T05:52:30.012Z,1596.16
2022-08-19T05:53:30.116Z,1649.92
2022-08-19T05:54:30.271Z,1751.04
2022-08-19T05:55:30.366Z,1710.08
2022-08-19T05:56:30.519Z,1917.44
2022-08-19T05:57:30.620Z,1918.72
2022-08-19T05:58:30.721Z,1847.04
2022-08-19T05:59:30.827Z,2035.2
2022-08-19T06:00:30.974Z,2053.12
2022-08-19T06:01:31.079Z,1841.92
2022-08-19T06:02:31.191Z,1752.32
2022-08-19T06:03:31.333Z,2039.04
2022-08-19T06:04:31.487Z,2200.32
2022-08-19T06:05:31.588Z,2078.72
2022-08-19T06:06:31.744Z,2746.88
2022-08-19T06:07:31.926Z,2506.24
2022-08-19T06:08:33.626Z,2553.6
2022-08-19T06:09:32.201Z,3358.72
2022-08-19T06:10:32.297Z,3921.92
2022-08-19T06:11:32.398Z,3205.12
2022-08-19T06:12:32.679Z,2892.8
2022-08-19T06:13:33.257Z,3100.16
2022-08-19T06:14:33.436Z,3340.8
2022-08-19T06:15:32.908Z,3525.12
2022-08-19T06:16:33.023Z,3371.52
2022-08-19T06:17:33.161Z,3025.92
2022-08-19T06:18:33.264Z,2785.28
2022-08-19T06:19:33.415Z,2624
2022-08-19T06:20:54.346Z,2342.4
2022-08-19T06:21:33.672Z,2206.72
2022-08-19T06:22:33.840Z,1905.92
2022-08-19T06:23:33.923Z,1767.68
2022-08-19T06:24:34.025Z,1690.88
2022-08-19T06:25:34.175Z,1537.28
2022-08-19T06:26:34.309Z,1689.6
2022-08-19T06:27:34.385Z,1603.84
2022-08-19T06:28:34.488Z,1587.2
2022-08-19T06:29:34.637Z,1675.52
2022-08-19T06:30:34.766Z,1884.16
2022-08-19T06:31:34.892Z,1916.16
2022-08-19T06:32:35.838Z,2067.2
2022-08-19T06:33:35.151Z,2155.52
2022-08-19T06:34:35.245Z,2236.16
2022-08-19T06:35:35.385Z,2071.04
2022-08-19T06:36:35.449Z,2351.36
2022-08-19T06:37:35.599Z,2462.72
2022-08-19T06:38:35.704Z,2375.68
2022-08-19T06:39:35.954Z,2371.84
2022-08-19T06:40:35.979Z,2231.04
2022-08-19T06:41:37.401Z,2272
2022-08-19T06:42:36.182Z,2112
2022-08-19T06:43:36.315Z,2187.52
2022-08-19T06:44:42.975Z,2197.76
2022-08-19T06:45:39.369Z,2510.08
2022-08-19T06:46:36.647Z,2708.48
2022-08-19T06:47:36.773Z,3013.12
2022-08-19T06:48:39.473Z,3376.64
2022-08-19T06:49:37.029Z,3484.16
2022-08-19T06:50:39.375Z,3747.84
2022-08-19T06:51:37.236Z,4024.32
2022-08-19T06:52:38.324Z,4216.32
2022-08-19T06:53:37.484Z,4986.88
2022-08-19T06:54:37.815Z,5153.28
2022-08-19T06:55:37.689Z,5826.56
2022-08-19T06:56:37.793Z,5626.88
2022-08-19T06:57:37.940Z,6400
2022-08-19T06:58:38.042Z,6184.96
2022-08-19T06:59:38.148Z,6210.56
2022-08-19T07:00:38.244Z,6010.88
2022-08-19T07:01:38.354Z,6533.12
2022-08-19T07:02:38.503Z,7086.08
2022-08-19T07:03:39.671Z,8207.36
2022-08-19T07:04:38.758Z,7705.6
2022-08-19T07:05:39.106Z,8171.52
2022-08-19T07:06:43.795Z,8074.24
2022-08-19T07:07:39.066Z,8837.12
2022-08-19T07:09:39.320Z,6830.08
2022-08-19T07:10:42.380Z,5821.44
2022-08-19T07:11:39.570Z,6251.52
2022-08-19T07:12:39.717Z,6625.28
2022-08-19T07:13:40.208Z,7111.68
2022-08-19T07:14:39.922Z,6522.88
2022-08-19T07:15:40.078Z,5918.72
2022-08-19T07:16:42.967Z,6599.68
2022-08-19T07:17:40.361Z,6681.6
2022-08-19T07:18:40.421Z,6773.76
2022-08-19T07:19:40.534Z,7183.36
2022-08-19T07:20:42.096Z,6702.08
2022-08-19T07:21:40.790Z,7219.2
2022-08-19T07:22:40.953Z,7004.16
2022-08-19T07:23:41.099Z,6748.16
2022-08-19T07:24:41.234Z,7173.12
2022-08-19T07:25:41.300Z,5975.04
2022-08-19T07:26:42.180Z,5004.8
2022-08-19T07:27:41.549Z,4881.92
2022-08-19T07:28:46.159Z,5056
2022-08-19T07:29:41.806Z,5227.52
2022-08-19T07:30:41.910Z,4771.84
2022-08-19T07:31:43.452Z,4469.76
2022-08-19T07:32:42.163Z,4116.48
2022-08-19T07:33:42.258Z,4390.4
2022-08-19T07:34:42.412Z,4418.56
2022-08-19T07:35:42.516Z,4328.96
2022-08-19T07:36:42.621Z,4208.64
2022-08-19T07:37:42.720Z,4259.84
2022-08-19T07:38:42.822Z,4129.28
2022-08-19T07:39:42.958Z,3968
2022-08-19T07:40:43.075Z,3962.88
2022-08-19T07:41:43.178Z,3834.88
2022-08-19T07:42:43.324Z,3911.68
2022-08-19T07:43:43.440Z,4198.4
2022-08-19T07:44:50.073Z,4119.04
2022-08-19T07:45:43.739Z,3466.24
2022-08-19T07:46:43.888Z,3740.16
2022-08-19T07:47:48.409Z,3727.36
2022-08-19T07:48:44.194Z,3732.48
2022-08-19T07:49:44.295Z,4177.92
2022-08-19T07:50:44.474Z,4413.44
2022-08-19T07:51:44.650Z,4180.48
2022-08-19T07:52:44.756Z,4334.08
2022-08-19T07:53:44.903Z,4421.12
2022-08-19T07:54:45.007Z,4544
2022-08-19T07:55:45.157Z,4272.64
2022-08-19T07:56:45.207Z,4308.48
2022-08-19T07:57:45.365Z,4264.96
2022-08-19T07:58:45.572Z,3596.8
2022-08-19T07:59:45.658Z,4743.68
2022-08-19T08:00:45.768Z,5416.96
2022-08-19T08:01:45.959Z,4910.08
2022-08-19T08:02:46.022Z,5529.6
2022-08-19T08:03:46.170Z,6164.48
2022-08-19T08:04:46.273Z,6763.52
2022-08-19T08:05:46.372Z,6958.08
2022-08-19T08:06:46.529Z,6522.88
2022-08-19T08:07:46.697Z,6072.32
2022-08-19T08:08:48.117Z,5980.16
2022-08-19T08:09:47.297Z,4986.88
2022-08-19T08:10:49.482Z,4651.52
2022-08-19T08:11:47.138Z,4546.56
2022-08-19T08:12:49.240Z,4323.84
2022-08-19T08:13:47.393Z,4316.16
2022-08-19T08:14:47.493Z,4597.76
2022-08-19T08:15:47.647Z,4904.96
2022-08-19T08:16:47.744Z,4515.84
2022-08-19T08:17:49.007Z,4505.6
2022-08-19T08:18:50.167Z,4536.32
2022-08-19T08:19:48.153Z,4485.12
2022-08-19T08:20:48.306Z,4367.36
2022-08-19T08:21:48.457Z,3765.76
2022-08-19T08:22:48.624Z,3200
2022-08-19T08:23:48.853Z,2769.92
2022-08-19T08:24:48.819Z,2713.6
2022-08-19T08:25:49.254Z,2759.68
2022-08-19T08:26:52.091Z,3025.92
2022-08-19T08:27:49.171Z,4229.12
2022-08-19T08:28:49.406Z,5050.88
2022-08-19T08:29:49.419Z,6138.88
2022-08-19T08:30:50.575Z,6707.2
2022-08-19T08:31:49.675Z,6420.48
2022-08-19T08:32:49.834Z,5683.2
2022-08-19T08:33:49.932Z,5104.64
2022-08-19T08:34:50.092Z,4815.36
2022-08-19T08:35:50.185Z,4339.2
2022-08-19T08:36:50.292Z,4111.36
2022-08-19T08:37:51.141Z,4288
2022-08-19T08:38:50.573Z,3985.92
2022-08-19T08:39:50.754Z,3527.68
2022-08-19T08:40:50.857Z,3197.44
2022-08-19T08:41:50.947Z,2933.76
2022-08-19T08:42:51.047Z,2731.52
2022-08-19T08:43:51.195Z,2602.24
2022-08-19T08:44:51.404Z,2583.04
2022-08-19T08:45:51.890Z,2664.96
2022-08-19T08:46:52.700Z,2639.36
2022-08-19T08:47:51.657Z,2693.12
2022-08-19T08:48:52.676Z,2575.36
2022-08-19T08:49:51.865Z,2574.08
2022-08-19T08:50:51.960Z,2641.92
2022-08-19T08:51:56.132Z,2631.68
2022-08-19T08:52:52.417Z,2598.4
2022-08-19T08:53:52.367Z,2621.44
2022-08-19T08:54:54.710Z,2762.24
2022-08-19T08:55:52.624Z,2744.32
2022-08-19T08:56:52.787Z,2657.28
2022-08-19T08:57:52.925Z,2604.8
2022-08-19T08:58:54.684Z,2900.48
2022-08-19T08:59:53.130Z,2944
2022-08-19T09:00:53.233Z,3435.52
2022-08-19T09:01:53.455Z,3581.44
2022-08-19T09:02:53.541Z,3799.04
2022-08-19T09:03:53.638Z,4244.48
2022-08-19T09:04:53.797Z,4495.36
2022-08-19T09:05:53.895Z,4846.08
2022-08-19T09:06:54.046Z,5053.44
2022-08-19T09:07:54.168Z,5050.88
2022-08-19T09:08:56.601Z,5524.48
2022-08-19T09:09:54.399Z,5278.72
2022-08-19T09:10:55.101Z,5698.56
2022-08-19T09:11:54.603Z,6353.92
2022-08-19T09:12:54.712Z,6528
2022-08-19T09:13:54.815Z,7034.88
2022-08-19T09:14:54.967Z,7424
2022-08-19T09:15:55.064Z,7633.92
2022-08-19T09:16:55.214Z,7644.16
2022-08-19T09:17:55.421Z,7915.52
2022-08-19T09:18:55.467Z,7767.04
2022-08-19T09:19:55.642Z,8545.28
2022-08-19T09:20:55.721Z,9738.24
2022-08-19T09:21:55.825Z,10844.16
2022-08-19T09:22:55.928Z,10772.479
2022-08-19T09:23:56.083Z,11141.12
2022-08-19T09:24:56.180Z,10741.76
2022-08-19T09:25:56.309Z,9584.64
2022-08-19T09:26:56.424Z,9415.68
2022-08-19T09:28:01.228Z,10516.479
2022-08-19T09:28:56.620Z,10874.88
2022-08-19T09:29:56.721Z,11141.12
2022-08-19T09:30:56.841Z,11724.8
2022-08-19T09:31:56.950Z,12728.319
2022-08-19T09:32:57.054Z,12625.92
2022-08-19T09:33:57.197Z,10485.76
2022-08-19T09:34:57.310Z,9359.359
2022-08-19T09:35:57.451Z,9487.359
2022-08-19T09:36:57.607Z,10690.56
2022-08-19T09:37:59.283Z,11294.72
2022-08-19T09:38:57.808Z,9984
2022-08-19T09:39:57.960Z,8401.92
2022-08-19T09:40:58.062Z,7736.32
2022-08-19T09:41:58.172Z,7234.56
2022-08-19T09:42:58.313Z,7004.16
2022-08-19T09:43:58.475Z,6748.16
2022-08-19T09:44:58.625Z,6743.04
2022-08-19T09:45:58.721Z,7234.56
2022-08-19T09:46:58.825Z,7946.24
2022-08-19T09:47:58.930Z,9041.92
2022-08-19T09:48:59.025Z,12144.64
2022-08-19T09:49:59.131Z,17192.96
2022-08-19T09:50:59.230Z,20869.12
2022-08-19T09:51:59.340Z,23982.08
2022-08-19T09:52:59.483Z,27197.44
2022-08-19T09:53:59.590Z,23183.36
2022-08-19T09:54:59.743Z,15964.159
2022-08-19T09:55:59.892Z,10183.68
2022-08-19T09:56:59.997Z,7992.32
2022-08-19T09:58:00.149Z,7623.68
2022-08-19T09:59:00.252Z,6896.64
2022-08-19T10:00:00.353Z,6676.48
2022-08-19T10:01:00.538Z,6906.88
2022-08-19T10:02:03.567Z,7424
2022-08-19T10:03:00.963Z,8494.08
2022-08-19T10:04:00.911Z,10496
2022-08-19T10:05:01.012Z,11591.68
2022-08-19T10:06:01.115Z,11868.16
2022-08-19T10:07:01.260Z,12707.84
2022-08-19T10:08:01.367Z,14366.72
2022-08-19T10:09:01.464Z,12800
2022-08-19T10:10:01.571Z,12953.6
2022-08-19T10:11:27.141Z,15011.84
2022-08-19T10:12:01.819Z,16046.08
2022-08-19T10:13:01.930Z,15872
2022-08-19T10:14:02.046Z,14397.439
2022-08-19T10:15:02.125Z,11120.64
2022-08-19T10:16:02.245Z,10224.64
2022-08-19T10:17:04.645Z,10188.8
2022-08-19T10:18:02.480Z,10874.88
2022-08-19T10:19:03.624Z,12748.8
2022-08-19T10:20:02.737Z,18483.2
2022-08-19T10:21:02.841Z,26275.84
2022-08-19T10:22:02.943Z,31293.44
2022-08-19T10:23:03.045Z,33013.76
2022-08-19T10:24:03.149Z,36536.32
2022-08-19T10:25:03.249Z,36761.6
2022-08-19T10:26:03.344Z,35635.2
2022-08-19T10:27:03.450Z,30453.76
2022-08-19T10:28:03.607Z,23613.44
2022-08-19T10:29:03.802Z,19118.08
2022-08-19T10:30:03.908Z,20111.36
2022-08-19T10:31:04.058Z,23818.24
2022-08-19T10:32:04.210Z,28344.32
2022-08-19T10:33:08.399Z,31047.68
2022-08-19T10:34:04.414Z,25702.4
2022-08-19T10:35:05.392Z,21176.32
2022-08-19T10:36:04.619Z,18001.92
2022-08-19T10:37:04.771Z,15206.399
2022-08-19T10:38:04.987Z,14540.8
2022-08-19T10:39:04.976Z,14919.68
2022-08-19T10:40:05.122Z,14632.96
2022-08-19T10:41:05.185Z,14120.96
2022-08-19T10:42:05.333Z,12564.479
2022-08-19T10:43:05.433Z,9722.88
2022-08-19T10:44:05.537Z,7470.08
2022-08-19T10:45:05.688Z,6389.76
2022-08-19T10:46:05.790Z,6138.88
2022-08-19T10:47:17.459Z,5985.28
2022-08-19T10:48:06.051Z,6190.08
2022-08-19T10:49:06.144Z,6246.4
2022-08-19T10:50:06.244Z,6287.36
2022-08-19T10:51:06.345Z,6507.52
2022-08-19T10:52:06.455Z,6671.36
2022-08-19T10:53:08.015Z,7772.16
2022-08-19T10:54:06.823Z,9139.2
2022-08-19T10:55:08.101Z,9507.84
2022-08-19T10:56:06.861Z,9359.359
2022-08-19T10:57:06.958Z,9072.64
2022-08-19T10:58:07.362Z,8632.319
2022-08-19T10:59:07.271Z,7731.2
2022-08-19T11:00:07.365Z,8325.12
2022-08-19T11:01:07.537Z,10188.8
2022-08-19T11:02:07.680Z,11581.439
2022-08-19T11:03:07.771Z,14305.279
2022-08-19T11:04:07.880Z,16568.32
2022-08-19T11:05:12.354Z,14970.88
2022-08-19T11:06:08.077Z,11284.479
2022-08-19T11:07:08.175Z,9006.08
2022-08-19T11:08:22.105Z,8130.56
2022-08-19T11:09:08.385Z,7075.84
2022-08-19T11:10:11.474Z,6159.36
2022-08-19T11:11:08.690Z,5539.84
2022-08-19T11:12:08.842Z,5391.36
2022-08-19T11:13:08.940Z,5184
2022-08-19T11:14:09.054Z,5335.04
2022-08-19T11:15:09.142Z,5775.36
2022-08-19T11:16:09.297Z,5836.8
2022-08-19T11:17:09.447Z,5954.56
2022-08-19T11:18:13.274Z,5893.12
2022-08-19T11:19:09.711Z,6978.56
2022-08-19T11:20:09.803Z,8832
2022-08-19T11:21:09.955Z,10915.84
2022-08-19T11:22:10.059Z,12615.68
2022-08-19T11:23:10.160Z,12779.52
2022-08-19T11:24:10.261Z,12349.439
2022-08-19T11:25:10.439Z,11663.359
2022-08-19T11:26:10.563Z,11243.52
2022-08-19T11:27:10.665Z,10844.16
2022-08-19T11:28:10.824Z,10368
2022-08-19T11:29:10.931Z,9748.479
2022-08-19T11:30:12.695Z,8058.88
2022-08-19T11:31:11.130Z,6082.56
2022-08-19T11:32:11.225Z,5099.52
2022-08-19T11:33:11.382Z,4464.64
2022-08-19T11:34:11.494Z,3371.52
2022-08-19T11:35:11.587Z,2739.2
2022-08-19T11:36:11.695Z,2693.12
2022-08-19T11:37:11.839Z,2908.16
2022-08-19T11:38:11.939Z,3630.08
2022-08-19T11:39:12.046Z,4254.72
2022-08-19T11:40:12.286Z,4474.88
2022-08-19T11:41:12.299Z,4753.92
2022-08-19T11:42:12.398Z,4152.32
2022-08-19T11:43:12.546Z,3665.92
2022-08-19T11:44:12.699Z,3366.4
2022-08-19T11:45:12.822Z,3215.36
2022-08-19T11:46:12.906Z,3351.04
2022-08-19T11:47:13.006Z,3673.6
2022-08-19T11:48:13.108Z,4044.8
2022-08-19T11:49:14.091Z,4500.48
2022-08-19T11:50:13.312Z,4541.44
2022-08-19T11:51:13.466Z,4047.36
2022-08-19T11:52:13.570Z,4257.28
2022-08-19T11:53:13.672Z,4083.2
2022-08-19T11:54:13.786Z,4454.4
2022-08-19T11:55:13.872Z,4454.4
2022-08-19T11:56:14.024Z,5365.76
2022-08-19T11:57:14.133Z,6681.6
2022-08-19T11:58:18.826Z,7347.2
2022-08-19T11:59:14.876Z,7726.08
2022-08-19T12:00:14.540Z,7782.4
2022-08-19T12:01:14.640Z,7889.92
2022-08-19T12:02:14.736Z,7941.12
2022-08-19T12:03:14.898Z,7260.16
2022-08-19T12:04:15.028Z,6338.56
2022-08-19T12:05:15.141Z,5626.88
2022-08-19T12:06:15.249Z,5166.08
2022-08-19T12:07:15.349Z,4840.96
2022-08-19T12:08:15.451Z,4495.36
2022-08-19T12:09:15.550Z,4318.72
2022-08-19T12:10:15.650Z,4088.32
2022-08-19T12:11:15.809Z,3822.08
2022-08-19T12:12:15.906Z,3837.44
2022-08-19T12:13:16.061Z,3962.88
2022-08-19T12:14:16.828Z,4206.08
2022-08-19T12:15:16.270Z,4623.36
2022-08-19T12:16:16.361Z,5176.32
2022-08-19T12:17:16.468Z,4935.68
2022-08-19T12:18:16.566Z,4874.24
2022-08-19T12:19:16.719Z,4958.72
2022-08-19T12:20:16.873Z,4887.04
2022-08-19T12:21:17.029Z,4976.64
2022-08-19T12:22:17.183Z,4984.32
2022-08-19T12:23:17.676Z,5329.92
2022-08-19T12:24:17.478Z,5928.96
2022-08-19T12:25:17.618Z,6266.88
2022-08-19T12:26:17.684Z,6568.96
2022-08-19T12:27:20.300Z,5980.16
2022-08-19T12:28:17.892Z,5539.84
2022-08-19T12:29:21.566Z,5411.84
2022-08-19T12:30:18.096Z,5079.04
2022-08-19T12:31:18.250Z,5155.84
2022-08-19T12:32:18.394Z,5422.08
2022-08-19T12:33:18.507Z,6021.12
2022-08-19T12:34:18.655Z,5949.44
2022-08-19T12:35:18.798Z,5637.12
2022-08-19T12:36:18.905Z,5529.6
2022-08-19T12:37:19.009Z,5591.04
2022-08-19T12:38:19.157Z,6010.88